Smithfield, Queensland

2:32 PM AEST on February 12, 2016 (GMT +1000)
The Beaches Luxury Apartments | | Change Station
CLOSE
Current Station
Personal Weather Station
Location: Smithfield, QUEENSLAND
Elevation: 59 ft
Nearby Weather Stations

Elev 59 ft 16.82 °S, 145.69 °E | Updated 2 minutes ago

Scattered Clouds
Scattered Clouds
94.3 °F
Feels Like 102 °F
N
5.4
Wind Variable Wind from ENE
Gusts 9.2 mph

Today
High -- | Low -- °F
--% Chance of Precip.
Yesterday
High -- | Low -- °F
Precip. -- in
Pressure 29.71 in
Visibility 6.2 miles
Clouds Few 2500 ft
Scattered Clouds 30000 ft
Heat Index 102 °F
Dew Point 72 °F
Humidity 48%
Rainfall 0.00 in
Snow Depth Not available.
6:10 AM 6:52 PM
Waxing Crescent, 17% visible
METAR YBCS 120400Z 07010KT 9999 FEW025 SCT300 32/22 Q1006 NOSIG
Pressure 29.71 in
Visibility 6.2 miles
Clouds Few 2500 ft
Scattered Clouds 30000 ft
Heat Index 102 °F
Dew Point 72 °F
Humidity 48%
Rainfall 0.00 in
Snow Depth Not available.
6:10 AM 6:52 PM
Waxing Crescent, 17% visible
METAR YBCS 120400Z 07010KT 9999 FEW025 SCT300 32/22 Q1006 NOSIG

10-Day Weather Forecast

Almanac

Astronomy

Feb. 12, 2016 Rise Set
Actual Time
Civil Twilight
Nautical Twilight
Astronomical Twilight
Moon
Length of Visible Light
Length of Day
Tomorrow will be .
, % of the Moon is Illuminated

Today's Extremes

Country Highs Country Lows

Community

WunderPhotos

Upload Photos

1,892,266 photos uploaded!

WunderBlog® & News

Nearby

Air Quality

  Air Quality AQ Index Pollutant
Not available.

Snow Depth

Station Depth Elevation

Earthquake Activity

City Distance Mag. Time & Date
Minimum magnitude displayed is 2.5.

Coastal Water Temperatures

Place Temperature

Stations

Nearby Weather Stations

Station Location Temp. Windchill Dew Point Humidity Wind Precip. Elev Updated Type